createdAt,value
2023-05-22T00:00:54.402Z,100286.00
2023-05-22T00:04:10.367Z,100293.81
2023-05-22T00:07:25.374Z,100296.75
2023-05-22T00:10:27.232Z,100295.28
2023-05-22T00:13:42.384Z,100301.06
2023-05-22T00:16:50.990Z,100298.56
2023-05-22T00:20:02.413Z,100301.06
2023-05-22T00:23:17.410Z,100297.22
2023-05-22T00:26:20.610Z,100299.69
2023-05-22T00:29:35.370Z,100294.28
2023-05-22T00:32:50.431Z,100294.28
2023-05-22T00:35:59.428Z,100297.53
2023-05-22T00:39:08.035Z,100293.03
2023-05-22T00:42:16.371Z,100302.41
2023-05-22T00:45:38.388Z,100295.97
2023-05-22T00:48:40.276Z,100301.50
2023-05-22T00:51:56.417Z,100302.88
2023-05-22T00:55:05.718Z,100303.66
2023-05-22T00:58:33.399Z,100308.88
2023-05-22T01:01:35.761Z,100298.78
2023-05-22T01:04:54.432Z,100284.75
2023-05-22T01:07:56.319Z,100302.84
2023-05-22T01:11:20.405Z,100299.91
2023-05-22T01:14:47.423Z,100304.56
2023-05-22T01:18:14.432Z,100295.16
2023-05-22T01:21:21.493Z,100301.16
2023-05-22T01:25:10.412Z,100295.81
2023-05-22T01:28:42.105Z,100296.50
2023-05-22T01:32:01.416Z,100304.81
2023-05-22T01:35:14.381Z,100300.38
2023-05-22T01:38:23.112Z,100296.31
2023-05-22T01:41:41.425Z,100295.38
2023-05-22T01:45:04.400Z,100294.91
2023-05-22T01:48:13.383Z,100293.22
2023-05-22T01:51:53.592Z,100282.59
2023-05-22T01:55:16.392Z,100281.34
2023-05-22T01:58:36.397Z,100275.00
2023-05-22T02:01:45.796Z,100276.59
2023-05-22T02:05:07.424Z,100273.53
2023-05-22T02:08:17.262Z,100261.16
2023-05-22T02:11:29.381Z,100275.72
2023-05-22T02:14:44.379Z,100270.22
2023-05-22T02:17:53.055Z,100281.59
2023-05-22T02:21:08.393Z,100274.91
2023-05-22T02:24:17.406Z,100274.59
2023-05-22T02:27:25.975Z,100272.88
2023-05-22T02:30:40.624Z,100267.00
2023-05-22T02:33:55.400Z,100262.09
2023-05-22T02:37:10.431Z,100274.66
2023-05-22T02:40:19.400Z,100273.09
2023-05-22T02:43:34.655Z,100276.44
2023-05-22T02:46:43.452Z,100268.47
2023-05-22T02:49:52.018Z,100268.31
2023-05-22T02:53:00.380Z,100272.13
2023-05-22T02:56:09.939Z,100265.78
2023-05-22T02:59:18.399Z,100276.59
2023-05-22T03:02:33.562Z,100274.09
2023-05-22T03:05:48.411Z,100269.34
2023-05-22T03:08:56.958Z,100269.53
2023-05-22T03:12:12.389Z,100270.84
2023-05-22T03:15:14.378Z,100253.87
2023-05-22T03:18:36.452Z,100272.31
2023-05-22T03:21:38.928Z,100269.00
2023-05-22T03:24:53.433Z,100268.19
2023-05-22T03:28:08.441Z,100251.56
2023-05-22T03:31:16.991Z,100266.16
2023-05-22T03:34:25.400Z,100255.06
2023-05-22T03:37:33.960Z,100266.00
2023-05-22T03:40:48.430Z,100268.91
2023-05-22T03:44:10.409Z,100265.56
2023-05-22T03:47:18.993Z,100265.09
2023-05-22T03:50:33.445Z,100267.47
2023-05-22T03:53:35.292Z,100263.50
2023-05-22T03:56:50.432Z,100261.06
2023-05-22T03:59:58.970Z,100259.28
2023-05-22T04:03:07.544Z,100248.44
2023-05-22T04:06:22.433Z,100263.41
2023-05-22T04:09:38.456Z,100258.44
2023-05-22T04:12:53.408Z,100264.72
2023-05-22T04:16:02.122Z,100263.53
2023-05-22T04:19:17.437Z,100264.63
2023-05-22T04:22:27.316Z,100255.69
2023-05-22T04:25:42.427Z,100261.97
2023-05-22T04:28:51.425Z,100269.12
2023-05-22T04:31:59.968Z,100265.72
2023-05-22T04:35:14.429Z,100264.16
2023-05-22T04:38:22.943Z,100262.28
2023-05-22T04:41:37.454Z,100267.59
2023-05-22T04:44:59.422Z,100265.84
2023-05-22T04:48:07.473Z,100275.00
2023-05-22T04:51:16.088Z,100274.47
2023-05-22T04:54:24.420Z,100278.09
2023-05-22T04:57:39.489Z,100273.91
2023-05-22T05:00:54.476Z,100289.53
2023-05-22T05:04:03.625Z,100286.94
2023-05-22T05:07:18.486Z,100286.94
2023-05-22T05:10:33.429Z,100291.06
2023-05-22T05:13:48.432Z,100285.09
2023-05-22T05:16:56.443Z,100289.16
2023-05-22T05:20:05.678Z,100284.75
2023-05-22T05:23:14.429Z,100282.62
2023-05-22T05:26:22.989Z,100271.28
2023-05-22T05:29:31.429Z,100279.56
2023-05-22T05:32:40.148Z,100286.94
2023-05-22T05:35:48.415Z,100290.19
2023-05-22T05:39:03.428Z,100291.78
2023-05-22T05:42:18.421Z,100302.41
2023-05-22T05:45:26.667Z,100308.97
2023-05-22T05:48:41.473Z,100304.78
2023-05-22T05:51:43.319Z,100311.56
2023-05-22T05:54:58.445Z,100304.00
2023-05-22T05:58:14.587Z,100316.56
2023-05-22T06:01:23.028Z,100302.63
2023-05-22T06:04:31.466Z,100300.94
2023-05-22T06:07:46.419Z,100302.84
2023-05-22T06:11:01.471Z,100309.19
2023-05-22T06:14:05.301Z,100310.19
2023-05-22T06:17:20.478Z,100309.06
2023-05-22T06:20:28.934Z,100301.69
2023-05-22T06:23:37.471Z,100306.75
2023-05-22T06:26:52.455Z,100310.03
2023-05-22T06:30:07.530Z,100323.84
2023-05-22T06:33:09.509Z,100302.56
2023-05-22T06:36:31.433Z,100298.56
2023-05-22T06:39:40.497Z,100302.31
2023-05-22T06:42:50.430Z,100309.78
2023-05-22T06:46:05.799Z,100296.09
2023-05-22T06:49:20.510Z,100291.34
2023-05-22T06:52:29.033Z,100307.44
2023-05-22T06:55:43.439Z,100304.72
2023-05-22T06:58:58.466Z,100302.44
2023-05-22T07:02:07.879Z,100305.63
2023-05-22T07:05:16.455Z,100310.38
2023-05-22T07:08:27.791Z,100302.13
2023-05-22T07:11:37.477Z,100304.09
2023-05-22T07:14:52.433Z,100312.56
2023-05-22T07:18:07.528Z,100308.31
2023-05-22T07:21:22.445Z,100316.50
2023-05-22T07:24:24.415Z,100314.25
2023-05-22T07:27:39.453Z,100309.06
2023-05-22T07:30:47.991Z,100321.50
2023-05-22T07:34:02.471Z,100316.47
2023-05-22T07:37:08.717Z,100313.16
2023-05-22T07:40:24.435Z,100305.41
2023-05-22T07:43:40.725Z,100305.34
2023-05-22T07:46:55.491Z,100306.16
2023-05-22T07:50:04.569Z,100312.47
2023-05-22T07:53:13.474Z,100304.84
2023-05-22T07:56:28.457Z,100306.53
2023-05-22T07:59:43.459Z,100312.00
2023-05-22T08:02:58.595Z,100312.88
2023-05-22T08:06:07.372Z,100316.97
2023-05-22T08:09:15.488Z,100308.19
2023-05-22T08:12:30.462Z,100303.72
2023-05-22T08:15:45.540Z,100308.56
2023-05-22T08:18:54.510Z,100315.66
2023-05-22T08:22:09.473Z,100312.72
2023-05-22T08:25:24.545Z,100312.53
2023-05-22T08:28:26.460Z,100309.97
2023-05-22T08:31:41.483Z,100312.84
2023-05-22T08:34:43.325Z,100304.91
2023-05-22T08:37:58.450Z,100306.56
2023-05-22T08:41:14.487Z,100308.25
2023-05-22T08:47:41.551Z,100307.38
2023-05-22T08:50:51.475Z,100307.81
2023-05-22T08:54:08.543Z,100306.16
2023-05-22T08:57:10.855Z,100303.12
2023-05-22T09:00:27.505Z,100300.75
2023-05-22T09:03:30.641Z,100294.34
2023-05-22T09:06:46.260Z,100296.59
2023-05-22T09:09:50.153Z,100294.50
2023-05-22T09:13:15.483Z,100293.19
2023-05-22T09:16:24.494Z,100299.41
2023-05-22T09:19:33.181Z,100295.63
2023-05-22T09:22:48.467Z,100293.25
2023-05-22T09:26:05.456Z,100291.28
2023-05-22T09:29:20.507Z,100293.34
2023-05-22T09:32:23.100Z,100289.75
2023-05-22T09:35:39.488Z,100284.53
2023-05-22T09:38:41.527Z,100297.00
2023-05-22T09:41:57.535Z,100285.00
2023-05-22T09:45:07.419Z,100283.47
2023-05-22T09:48:23.491Z,100263.13
2023-05-22T09:51:42.499Z,100280.84
2023-05-22T09:54:50.903Z,100276.97
2023-05-22T09:58:10.479Z,100276.59
2023-05-22T10:01:19.757Z,100263.16
2023-05-22T10:04:38.530Z,100251.97
2023-05-22T10:07:59.344Z,100273.38
2023-05-22T10:11:07.500Z,100273.59
2023-05-22T10:14:23.496Z,100267.87
2023-05-22T10:17:42.532Z,100269.50
2023-05-22T10:20:51.883Z,100268.72
2023-05-22T10:24:08.508Z,100265.19
2023-05-22T10:27:16.520Z,100257.25
2023-05-22T10:30:43.751Z,100254.37
2023-05-22T10:34:05.681Z,100248.09
2023-05-22T10:37:53.913Z,100248.31
2023-05-22T10:41:04.712Z,100245.56
2023-05-22T10:44:28.562Z,100234.56
2023-05-22T10:47:44.742Z,100242.78
2023-05-22T10:51:01.543Z,100240.47
2023-05-22T10:54:10.211Z,100227.53
2023-05-22T10:57:25.569Z,100221.56
2023-05-22T11:00:44.650Z,100216.47
2023-05-22T11:04:00.506Z,100224.56
2023-05-22T11:07:09.199Z,100217.59
2023-05-22T11:10:17.580Z,100219.22
2023-05-22T11:13:29.005Z,100215.97
2023-05-22T11:16:41.562Z,100209.34
2023-05-22T11:20:06.205Z,100201.62
2023-05-22T11:23:24.543Z,100204.75
2023-05-22T11:26:28.112Z,100194.25
2023-05-22T11:29:43.506Z,100197.50
2023-05-22T11:32:46.055Z,100193.34
2023-05-22T11:36:01.662Z,100191.12
2023-05-22T11:39:21.591Z,100183.91
2023-05-22T11:42:30.643Z,100169.13
2023-05-22T11:45:52.519Z,100188.12
2023-05-22T11:49:07.529Z,100182.22
2023-05-22T11:52:16.870Z,100185.19
2023-05-22T11:55:25.523Z,100179.59
2023-05-22T11:58:40.530Z,100180.72
2023-05-22T12:01:52.474Z,100186.03
2023-05-22T12:05:01.545Z,100183.72
2023-05-22T12:08:16.537Z,100176.13
2023-05-22T12:11:26.581Z,100168.91
2023-05-22T12:14:36.538Z,100165.34
2023-05-22T12:17:51.580Z,100166.69
2023-05-22T12:21:01.539Z,100159.81
2023-05-22T12:24:16.560Z,100151.91
2023-05-22T12:27:18.502Z,100157.25
2023-05-22T12:30:33.550Z,100153.34
2023-05-22T12:33:48.552Z,100146.69
2023-05-22T12:37:03.590Z,100152.37
2023-05-22T12:40:18.577Z,100144.59
2023-05-22T12:43:40.538Z,100135.87
2023-05-22T12:46:55.665Z,100130.94
2023-05-22T12:49:57.547Z,100127.91
2023-05-22T12:53:12.540Z,100115.28
2023-05-22T12:56:21.122Z,100109.53
2023-05-22T12:59:35.536Z,100117.16
2023-05-22T13:02:50.594Z,100108.31
2023-05-22T13:06:05.551Z,100088.00
2023-05-22T13:09:14.235Z,100094.19
2023-05-22T13:12:23.798Z,100090.47
2023-05-22T13:15:33.239Z,100091.47
2023-05-22T13:18:48.586Z,100087.97
2023-05-22T13:21:58.415Z,100076.78
2023-05-22T13:25:15.573Z,100078.78
2023-05-22T13:28:30.593Z,100073.19
2023-05-22T13:31:32.469Z,100075.75
2023-05-22T13:34:48.687Z,100072.78
2023-05-22T13:37:57.609Z,100068.59
2023-05-22T13:41:06.283Z,100063.09
2023-05-22T13:44:14.625Z,100068.84
2023-05-22T13:47:29.880Z,100055.31
2023-05-22T13:50:38.632Z,100059.12
2023-05-22T13:53:53.596Z,100063.72
2023-05-22T13:57:08.646Z,100064.25
2023-05-22T14:00:17.575Z,100062.53
2023-05-22T14:03:26.575Z,100059.66
2023-05-22T14:06:35.133Z,100054.06
2023-05-22T14:09:49.563Z,100052.94
2023-05-22T14:12:57.633Z,100054.03
2023-05-22T14:16:12.596Z,100046.50
2023-05-22T14:19:14.552Z,100042.72
2023-05-22T14:22:30.599Z,100035.78
2023-05-22T14:25:41.888Z,100038.19
2023-05-22T14:28:50.599Z,100033.28
2023-05-22T14:32:04.243Z,100033.19
2023-05-22T14:35:19.602Z,100036.22
2023-05-22T14:38:31.222Z,100038.41
2023-05-22T14:41:39.585Z,100036.50
2023-05-22T14:45:01.641Z,100039.28
2023-05-22T14:48:03.733Z,100030.75
2023-05-22T14:51:18.596Z,100033.19
2023-05-22T14:54:20.566Z,100040.28
2023-05-22T14:57:35.597Z,100023.41
2023-05-22T15:00:50.604Z,100026.97
2023-05-22T15:03:52.603Z,100029.34
2023-05-22T15:07:07.677Z,100027.03
2023-05-22T15:10:16.196Z,100022.31
2023-05-22T15:13:30.635Z,100022.69
2023-05-22T15:16:39.219Z,100018.41
2023-05-22T15:19:53.607Z,100014.09
2023-05-22T15:22:55.466Z,100015.22
2023-05-22T15:26:10.595Z,100015.59
2023-05-22T15:29:12.582Z,100011.69
2023-05-22T15:32:27.704Z,100008.50
2023-05-22T15:35:36.153Z,100011.19
2023-05-22T15:38:50.624Z,99993.09
2023-05-22T15:42:06.276Z,100002.47
2023-05-22T15:45:21.610Z,100001.97
2023-05-22T15:48:30.237Z,99992.97
2023-05-22T15:51:44.627Z,100000.06
2023-05-22T15:54:54.944Z,99996.50
2023-05-22T15:58:05.155Z,99995.25
2023-05-22T16:01:19.639Z,99993.63
2023-05-22T16:04:28.261Z,99994.37
2023-05-22T16:07:42.614Z,99999.88
2023-05-22T16:10:51.696Z,99996.69
2023-05-22T16:14:06.657Z,99994.50
2023-05-22T16:17:14.662Z,100007.84
2023-05-22T16:20:23.195Z,99995.47
2023-05-22T16:23:37.638Z,99997.12
2023-05-22T16:26:46.196Z,99990.09
2023-05-22T16:29:54.643Z,99998.72
2023-05-22T16:33:03.208Z,100001.91
2023-05-22T16:36:11.657Z,99999.84
2023-05-22T16:39:20.209Z,99990.88
2023-05-22T16:42:28.649Z,99999.91
2023-05-22T16:45:43.900Z,99993.22
2023-05-22T16:48:58.658Z,99997.19
2023-05-22T16:52:13.685Z,100002.31
2023-05-22T16:55:22.269Z,100015.25
2023-05-22T16:58:36.658Z,100021.59
2023-05-22T17:01:45.234Z,100020.44
2023-05-22T17:04:53.666Z,100023.09
2023-05-22T17:08:02.196Z,100022.22
2023-05-22T17:11:16.641Z,100020.53
2023-05-22T17:14:31.624Z,100024.41
2023-05-22T17:17:33.660Z,100024.34
2023-05-22T17:20:48.629Z,100024.00
2023-05-22T17:23:56.686Z,100016.19
2023-05-22T17:27:05.366Z,100026.34
2023-05-22T17:30:20.645Z,100022.06
2023-05-22T17:33:23.727Z,100012.56
2023-05-22T17:36:38.677Z,100029.03
2023-05-22T17:39:53.658Z,100032.84
2023-05-22T17:43:08.656Z,100044.53
2023-05-22T17:46:23.970Z,100061.63
2023-05-22T17:49:32.653Z,100102.41
2023-05-22T17:52:41.237Z,100090.31
2023-05-22T17:55:56.634Z,100076.16
2023-05-22T17:59:05.653Z,100063.34
2023-05-22T18:02:14.213Z,100057.91
2023-05-22T18:05:28.637Z,100055.38
2023-05-22T18:08:43.670Z,100059.06
2023-05-22T18:11:45.639Z,100055.16
2023-05-22T18:15:00.746Z,100056.88
2023-05-22T18:18:12.091Z,100053.63
2023-05-22T18:21:21.789Z,100066.09
2023-05-22T18:24:36.722Z,100070.38
2023-05-22T18:27:51.683Z,100074.69
2023-05-22T18:31:07.706Z,100064.16
2023-05-22T18:34:22.679Z,100066.16
2023-05-22T18:37:37.679Z,100069.25
2023-05-22T18:40:39.793Z,100067.66
2023-05-22T18:43:54.649Z,100064.88
2023-05-22T18:47:03.064Z,100058.63
2023-05-22T18:50:18.671Z,100058.13
2023-05-22T18:53:33.658Z,100071.44
2023-05-22T18:56:42.725Z,100083.34
2023-05-22T18:59:58.675Z,100069.12
2023-05-22T19:03:14.650Z,100070.00
2023-05-22T19:06:17.469Z,100085.16
2023-05-22T19:09:33.661Z,100083.25
2023-05-22T19:12:36.520Z,100087.63
2023-05-22T19:15:52.677Z,100061.28
2023-05-22T19:19:09.723Z,100089.97
2023-05-22T19:22:19.870Z,100089.06
2023-05-22T19:25:35.934Z,100094.50
2023-05-22T19:28:51.699Z,100108.13
2023-05-22T19:32:07.715Z,100122.84
2023-05-22T19:35:31.690Z,100119.03
2023-05-22T19:39:00.682Z,100112.56
2023-05-22T19:42:18.690Z,100118.56
2023-05-22T19:45:45.705Z,100120.75
2023-05-22T19:49:17.668Z,100124.34
2023-05-22T19:52:44.700Z,100117.09
2023-05-22T19:56:01.059Z,100107.38
2023-05-22T19:59:25.714Z,100111.66
2023-05-22T20:02:42.716Z,100113.50
2023-05-22T20:06:00.679Z,100111.13
2023-05-22T20:09:18.671Z,100112.63
2023-05-22T20:12:34.689Z,100111.91
2023-05-22T20:16:09.700Z,100113.25
2023-05-22T20:19:20.175Z,100107.38
2023-05-22T20:22:37.665Z,100103.66
2023-05-22T20:25:39.694Z,100101.50
2023-05-22T20:28:54.677Z,100098.69
2023-05-22T20:32:09.724Z,100098.44
2023-05-22T20:35:12.634Z,100101.06
2023-05-22T20:38:27.705Z,100097.94
2023-05-22T20:41:42.691Z,100098.63
2023-05-22T20:44:44.918Z,100098.97
2023-05-22T20:47:59.754Z,100097.53
2023-05-22T20:51:08.278Z,100095.50
2023-05-22T20:54:23.687Z,100102.53
2023-05-22T20:57:38.697Z,100104.75
2023-05-22T21:00:47.238Z,100104.75
2023-05-22T21:04:01.785Z,100101.72
2023-05-22T21:07:16.694Z,100099.09
2023-05-22T21:10:25.210Z,100096.94
2023-05-22T21:13:39.713Z,100101.59
2023-05-22T21:16:41.613Z,100098.44
2023-05-22T21:19:56.675Z,100098.00
2023-05-22T21:23:05.277Z,100100.16
2023-05-22T21:26:13.721Z,100091.25
2023-05-22T21:29:22.233Z,100093.88
2023-05-22T21:32:30.765Z,100092.59
2023-05-22T21:35:45.701Z,100091.37
2023-05-22T21:38:47.686Z,100096.66
2023-05-22T21:42:02.732Z,100102.66
2023-05-22T21:45:18.084Z,100113.38
2023-05-22T21:48:26.748Z,100111.91
2023-05-22T21:51:35.318Z,100114.16
2023-05-22T21:54:43.708Z,100112.03
2023-05-22T22:01:24.758Z,100106.38
2023-05-22T22:04:39.696Z,100105.94
2023-05-22T22:07:48.285Z,100110.44
2023-05-22T22:10:56.707Z,100110.22
2023-05-22T22:14:05.320Z,100106.16
2023-05-22T22:17:19.698Z,100108.41
2023-05-22T22:20:30.340Z,100115.16
2023-05-22T22:23:54.721Z,100105.22
2023-05-22T22:27:09.715Z,100109.28
2023-05-22T22:30:11.777Z,100112.19
2023-05-22T22:33:27.701Z,100109.81
2023-05-22T22:36:29.606Z,100099.44
2023-05-22T22:39:44.702Z,100092.31
2023-05-22T22:42:52.768Z,100100.22
2023-05-22T22:46:07.992Z,100102.94
2023-05-22T22:49:22.729Z,100098.97
2023-05-22T22:52:24.824Z,100094.56
2023-05-22T22:55:40.103Z,100090.50
2023-05-22T22:58:48.701Z,100092.28
2023-05-22T23:02:03.745Z,100100.22
2023-05-22T23:05:07.090Z,100096.03
2023-05-22T23:08:21.710Z,100091.34
2023-05-22T23:11:36.747Z,100089.31
2023-05-22T23:14:45.266Z,100084.78
2023-05-22T23:17:59.750Z,100094.66
2023-05-22T23:21:08.257Z,100083.28
2023-05-22T23:24:22.698Z,100085.38
2023-05-22T23:27:31.227Z,100079.97
2023-05-22T23:30:45.703Z,100089.47
2023-05-22T23:34:00.742Z,100096.22
2023-05-22T23:37:02.997Z,100092.72
2023-05-22T23:40:17.731Z,100092.25
2023-05-22T23:43:20.779Z,100092.94
2023-05-22T23:46:42.801Z,100091.94
2023-05-22T23:49:51.703Z,100083.22
2023-05-22T23:53:06.714Z,100085.81
2023-05-22T23:56:21.725Z,100091.22
2023-05-22T23:59:36.731Z,100097.16
